createdAt,value
2018-10-11T00:01:58.443Z,28.00
2018-10-11T00:04:26.748Z,28.23
2018-10-11T00:06:55.036Z,28.27
2018-10-11T00:09:23.354Z,32.20
2018-10-11T00:11:51.675Z,29.70
2018-10-11T00:14:19.936Z,30.70
2018-10-11T00:16:48.263Z,28.87
2018-10-11T00:19:16.683Z,29.37
2018-10-11T00:21:44.992Z,27.10
2018-10-11T00:24:13.319Z,29.33
2018-10-11T00:26:41.780Z,31.60
2018-10-11T00:29:10.199Z,31.07
2018-10-11T00:31:38.488Z,30.67
2018-10-11T00:34:06.837Z,30.10
2018-10-11T00:36:35.124Z,27.60
2018-10-11T00:39:05.354Z,28.05
2018-10-11T00:41:33.649Z,27.77
2018-10-11T00:44:02.024Z,29.37
2018-10-11T00:46:30.435Z,26.67
2018-10-11T00:48:58.750Z,31.33
2018-10-11T00:51:27.090Z,32.33
2018-10-11T00:53:55.434Z,30.17
2018-10-11T00:56:23.748Z,29.35
2018-10-11T00:58:52.049Z,31.27
2018-10-11T01:01:20.566Z,28.63
2018-10-11T01:03:48.856Z,30.67
2018-10-11T01:06:17.328Z,29.97
2018-10-11T01:08:45.672Z,27.10
2018-10-11T01:11:14.141Z,28.37
2018-10-11T01:13:42.580Z,28.87
2018-10-11T01:16:10.921Z,29.73
2018-10-11T01:18:39.246Z,28.30
2018-10-11T01:21:07.669Z,28.70
2018-10-11T01:23:36.245Z,29.93
2018-10-11T01:26:04.532Z,27.20
2018-10-11T01:28:33.085Z,28.90
2018-10-11T01:31:06.639Z,28.63
2018-10-11T01:33:34.914Z,30.73
2018-10-11T01:36:03.366Z,32.15
2018-10-11T01:38:31.631Z,31.63
2018-10-11T01:40:59.954Z,33.10
2018-10-11T01:43:28.353Z,33.23
2018-10-11T01:45:56.605Z,32.40
2018-10-11T01:48:25.613Z,33.27
2018-10-11T01:50:53.890Z,31.90
2018-10-11T01:53:22.235Z,33.13
2018-10-11T01:55:50.556Z,32.77
2018-10-11T01:58:18.841Z,31.23
2018-10-11T02:00:47.130Z,32.00
2018-10-11T02:03:15.519Z,34.13
2018-10-11T02:05:43.833Z,31.77
2018-10-11T02:08:12.224Z,29.67
2018-10-11T02:10:40.554Z,30.80
2018-10-11T02:13:08.822Z,29.97
2018-10-11T02:15:37.111Z,28.57
2018-10-11T02:18:05.557Z,29.53
2018-10-11T02:20:33.836Z,31.15
2018-10-11T02:23:02.211Z,31.30
2018-10-11T02:25:30.544Z,32.33
2018-10-11T02:27:58.947Z,32.87
2018-10-11T02:30:27.474Z,31.17
2018-10-11T02:32:55.845Z,31.63
2018-10-11T02:35:24.209Z,33.37
2018-10-11T02:37:52.528Z,32.57
2018-10-11T02:40:20.878Z,31.27
2018-10-11T02:42:49.189Z,32.30
2018-10-11T02:45:17.443Z,36.90
2018-10-11T02:47:45.760Z,35.60
2018-10-11T02:50:14.286Z,36.20
2018-10-11T02:52:42.580Z,35.20
2018-10-11T02:55:17.293Z,34.07
2018-10-11T02:57:56.793Z,32.60
2018-10-11T03:00:25.088Z,33.33
2018-10-11T03:02:53.502Z,33.27
2018-10-11T03:05:21.828Z,35.20
2018-10-11T03:07:50.362Z,31.60
2018-10-11T03:10:18.620Z,35.47
2018-10-11T03:12:46.917Z,33.60
2018-10-11T03:15:15.324Z,35.48
2018-10-11T03:17:43.625Z,33.00
2018-10-11T03:20:11.946Z,35.37
2018-10-11T03:22:40.280Z,34.33
2018-10-11T03:25:08.736Z,34.83
2018-10-11T03:27:37.160Z,35.97
2018-10-11T03:30:05.541Z,35.10
2018-10-11T03:32:33.855Z,34.33
2018-10-11T03:35:02.132Z,35.10
2018-10-11T03:37:30.615Z,36.00
2018-10-11T03:39:58.862Z,35.40
2018-10-11T03:42:27.227Z,33.93
2018-10-11T03:44:55.527Z,35.63
2018-10-11T03:47:23.922Z,34.93
2018-10-11T03:49:52.234Z,36.10
2018-10-11T03:52:20.542Z,36.80
2018-10-11T03:54:48.912Z,35.10
2018-10-11T03:57:17.220Z,35.70
2018-10-11T03:59:45.481Z,36.53
2018-10-11T04:02:13.953Z,36.67
2018-10-11T04:04:42.506Z,35.67
2018-10-11T04:07:10.810Z,38.10
2018-10-11T04:09:39.081Z,40.60
2018-10-11T04:12:07.502Z,41.07
2018-10-11T04:14:35.792Z,43.28
2018-10-11T04:17:04.071Z,43.17
2018-10-11T04:19:32.628Z,42.07
2018-10-11T04:22:00.993Z,39.83
2018-10-11T04:24:29.336Z,39.27
2018-10-11T04:26:57.641Z,40.92
2018-10-11T04:29:26.300Z,43.68
2018-10-11T04:31:54.786Z,40.57
2018-10-11T04:34:23.112Z,42.13
2018-10-11T04:36:51.584Z,43.95
2018-10-11T04:39:19.921Z,40.47
2018-10-11T04:41:48.344Z,40.40
2018-10-11T04:44:16.632Z,37.93
2018-10-11T04:46:45.400Z,38.67
2018-10-11T04:49:13.809Z,37.80
2018-10-11T04:51:42.979Z,37.70
2018-10-11T04:54:11.298Z,39.00
2018-10-11T04:56:39.774Z,38.63
2018-10-11T04:59:08.280Z,37.98
2018-10-11T05:01:36.620Z,39.40
2018-10-11T05:04:04.912Z,37.67
2018-10-11T05:06:33.199Z,37.70
2018-10-11T05:09:01.585Z,36.30
2018-10-11T05:11:29.922Z,36.00
2018-10-11T05:14:00.027Z,35.30
2018-10-11T05:16:28.517Z,37.10
2018-10-11T05:18:59.746Z,38.70
2018-10-11T05:21:28.243Z,37.75
2018-10-11T05:23:56.790Z,36.25
2018-10-11T05:26:25.229Z,34.98
2018-10-11T05:28:53.700Z,36.50
2018-10-11T05:31:22.224Z,39.53
2018-10-11T05:33:51.318Z,39.48
2018-10-11T05:36:19.622Z,37.40
2018-10-11T05:38:48.034Z,32.40
2018-10-11T05:41:16.372Z,35.90
2018-10-11T05:43:44.760Z,36.10
2018-10-11T05:46:19.587Z,36.00
2018-10-11T05:48:47.874Z,36.27
2018-10-11T05:51:16.234Z,37.37
2018-10-11T05:53:44.671Z,35.67
2018-10-11T05:56:17.397Z,36.70
2018-10-11T05:58:47.056Z,36.10
2018-10-11T06:01:15.461Z,33.05
2018-10-11T06:03:44.664Z,34.47
2018-10-11T06:06:13.155Z,35.28
2018-10-11T06:08:41.502Z,35.27
2018-10-11T06:11:09.903Z,33.57
2018-10-11T06:13:38.258Z,36.13
2018-10-11T06:16:06.731Z,35.97
2018-10-11T06:18:35.071Z,37.03
2018-10-11T06:21:03.318Z,38.23
2018-10-11T06:23:31.609Z,39.00
2018-10-11T06:25:59.944Z,41.80
2018-10-11T06:28:28.227Z,49.60
2018-10-11T06:30:56.695Z,42.10
2018-10-11T06:33:24.968Z,36.55
2018-10-11T06:35:53.301Z,40.50
2018-10-11T06:38:21.856Z,37.90
2018-10-11T06:40:50.180Z,37.70
2018-10-11T06:43:18.471Z,36.77
2018-10-11T06:45:46.851Z,39.30
2018-10-11T06:48:15.198Z,39.45
2018-10-11T06:50:43.971Z,39.80
2018-10-11T06:53:12.402Z,41.23
2018-10-11T06:55:40.718Z,39.83
2018-10-11T06:58:09.000Z,39.90
2018-10-11T07:00:37.391Z,39.30
2018-10-11T07:03:05.929Z,40.63
2018-10-11T07:05:34.159Z,41.00
2018-10-11T07:08:02.465Z,38.65
2018-10-11T07:10:30.806Z,38.63
2018-10-11T07:12:59.124Z,40.10
2018-10-11T07:15:27.673Z,38.10
2018-10-11T07:17:56.133Z,39.90
2018-10-11T07:20:24.554Z,38.70
2018-10-11T07:22:52.915Z,39.03
2018-10-11T07:25:21.168Z,39.43
2018-10-11T07:27:49.475Z,37.00
2018-10-11T07:30:17.831Z,40.03
2018-10-11T07:32:46.166Z,38.23
2018-10-11T07:35:14.485Z,35.00
2018-10-11T07:37:42.887Z,33.67
2018-10-11T07:40:11.138Z,33.87
2018-10-11T07:42:39.402Z,30.90
2018-10-11T07:45:07.720Z,31.83
2018-10-11T07:47:36.152Z,32.57
2018-10-11T07:50:04.896Z,33.60
2018-10-11T07:52:33.224Z,32.30
2018-10-11T07:55:01.553Z,32.53
2018-10-11T07:57:29.920Z,34.47
2018-10-11T07:59:58.215Z,36.87
2018-10-11T08:02:26.496Z,35.30
2018-10-11T08:04:54.779Z,33.77
2018-10-11T08:07:23.243Z,33.00
2018-10-11T08:09:51.536Z,33.23
2018-10-11T08:12:19.804Z,35.40
2018-10-11T08:14:48.147Z,34.73
2018-10-11T08:17:16.912Z,32.23
2018-10-11T08:19:44.989Z,33.47
2018-10-11T08:22:13.207Z,31.17
2018-10-11T08:24:41.623Z,33.80
2018-10-11T08:27:09.999Z,33.00
2018-10-11T08:29:38.224Z,31.47
2018-10-11T08:32:06.575Z,32.40
2018-10-11T08:34:34.912Z,32.00
2018-10-11T08:37:03.236Z,29.20
2018-10-11T08:39:31.578Z,63.10
2018-10-11T08:41:59.997Z,31.13
2018-10-11T08:44:28.286Z,30.50
2018-10-11T08:46:56.660Z,31.37
2018-10-11T08:49:24.983Z,33.40
2018-10-11T08:51:53.324Z,29.60
2018-10-11T08:54:26.693Z,30.60
2018-10-11T08:56:55.004Z,30.60
2018-10-11T08:59:23.490Z,30.97
2018-10-11T09:01:51.690Z,31.60
2018-10-11T09:04:19.988Z,31.03
2018-10-11T09:06:48.293Z,28.20
2018-10-11T09:09:16.579Z,29.80
2018-10-11T09:11:44.952Z,26.70
2018-10-11T09:14:13.258Z,27.73
2018-10-11T09:16:41.647Z,28.07
2018-10-11T09:19:09.931Z,28.93
2018-10-11T09:21:38.336Z,28.10
2018-10-11T09:24:06.785Z,27.77
2018-10-11T09:26:35.088Z,28.10
2018-10-11T09:29:03.360Z,26.43
2018-10-11T09:31:31.704Z,26.37
2018-10-11T09:34:00.076Z,25.97
2018-10-11T09:36:28.430Z,23.40
2018-10-11T09:38:56.670Z,25.80
2018-10-11T09:41:25.043Z,24.40
2018-10-11T09:43:53.448Z,23.50
2018-10-11T09:46:22.035Z,22.90
2018-10-11T09:48:50.487Z,22.27
2018-10-11T09:51:18.680Z,21.87
2018-10-11T09:53:46.974Z,23.13
2018-10-11T09:56:15.360Z,22.00
2018-10-11T09:58:43.691Z,17.87
2018-10-11T10:01:17.184Z,17.77
2018-10-11T10:03:45.690Z,18.40
2018-10-11T10:06:14.008Z,19.00
2018-10-11T10:08:42.440Z,20.17
2018-10-11T10:11:10.701Z,19.10
2018-10-11T10:13:39.105Z,21.03
2018-10-11T10:16:07.456Z,19.10
2018-10-11T10:18:35.733Z,19.23
2018-10-11T10:21:04.231Z,17.50
2018-10-11T10:23:32.510Z,16.47
2018-10-11T10:26:00.872Z,17.50
2018-10-11T10:28:29.173Z,17.73
2018-10-11T10:30:57.716Z,16.90
2018-10-11T10:33:26.298Z,17.40
2018-10-11T10:35:54.656Z,18.20
2018-10-11T10:38:23.613Z,17.10
2018-10-11T10:40:52.351Z,18.43
2018-10-11T10:43:20.869Z,16.60
2018-10-11T10:45:49.390Z,17.50
2018-10-11T10:48:17.743Z,15.70
2018-10-11T10:50:46.094Z,15.93
2018-10-11T10:53:14.862Z,16.90
2018-10-11T10:55:43.332Z,16.07
2018-10-11T10:58:11.695Z,15.17
2018-10-11T11:00:40.074Z,15.77
2018-10-11T11:03:08.367Z,16.97
2018-10-11T11:05:36.667Z,15.03
2018-10-11T11:08:05.039Z,17.60
2018-10-11T11:10:33.366Z,16.30
2018-10-11T11:13:01.660Z,17.07
2018-10-11T11:15:30.267Z,16.90
2018-10-11T11:17:58.756Z,16.57
2018-10-11T11:20:27.112Z,16.73
2018-10-11T11:22:55.663Z,15.30
2018-10-11T11:25:24.212Z,14.83
2018-10-11T11:27:52.487Z,15.30
2018-10-11T11:30:20.940Z,14.50
2018-10-11T11:32:49.247Z,14.90
2018-10-11T11:35:17.705Z,14.67
2018-10-11T11:37:46.053Z,13.00
2018-10-11T11:40:14.338Z,14.90
2018-10-11T11:42:42.739Z,12.73
2018-10-11T11:45:11.067Z,13.20
2018-10-11T11:47:39.528Z,14.33
2018-10-11T11:50:08.090Z,12.40
2018-10-11T11:52:36.464Z,12.27
2018-10-11T11:55:04.840Z,13.67
2018-10-11T11:57:33.136Z,12.83
2018-10-11T12:00:01.496Z,13.23
2018-10-11T12:02:29.837Z,13.13
2018-10-11T12:04:58.117Z,12.97
2018-10-11T12:07:26.420Z,13.40
2018-10-11T12:09:54.704Z,11.63
2018-10-11T12:13:01.775Z,11.23
2018-10-11T12:15:30.921Z,10.77
2018-10-11T12:18:00.485Z,9.57
2018-10-11T12:20:30.845Z,11.80
2018-10-11T12:23:00.150Z,9.50
2018-10-11T12:25:28.963Z,9.90
2018-10-11T12:27:57.249Z,11.50
2018-10-11T12:30:25.608Z,9.53
2018-10-11T12:32:53.962Z,10.93
2018-10-11T12:35:23.266Z,9.10
2018-10-11T12:37:51.635Z,10.00
2018-10-11T12:40:20.098Z,9.73
2018-10-11T12:42:48.388Z,9.40
2018-10-11T12:45:17.314Z,9.00
2018-10-11T12:47:45.768Z,8.30
2018-10-11T12:50:14.314Z,9.57
2018-10-11T12:52:42.858Z,9.40
2018-10-11T12:55:11.361Z,8.23
2018-10-11T12:57:39.925Z,11.37
2018-10-11T13:00:09.868Z,10.97
2018-10-11T13:02:38.198Z,12.50
2018-10-11T13:05:06.616Z,9.80
2018-10-11T13:07:35.059Z,11.43
2018-10-11T13:10:03.774Z,11.57
2018-10-11T13:12:32.143Z,12.93
2018-10-11T13:15:00.476Z,10.57
2018-10-11T13:17:31.657Z,11.20
2018-10-11T13:19:57.363Z,11.87
2018-10-11T13:22:25.814Z,10.10
2018-10-11T13:24:54.176Z,14.70
2018-10-11T13:27:22.486Z,11.57
2018-10-11T13:29:51.015Z,10.20
2018-10-11T13:32:19.301Z,10.20
2018-10-11T13:34:47.775Z,9.90
2018-10-11T13:37:16.517Z,12.37
2018-10-11T13:39:52.023Z,10.53
2018-10-11T13:42:13.493Z,8.90
2018-10-11T13:44:41.942Z,9.57
2018-10-11T13:47:10.386Z,10.67
2018-10-11T13:49:38.779Z,9.57
2018-10-11T13:52:07.232Z,13.07
2018-10-11T13:54:35.665Z,9.80
2018-10-11T13:57:04.028Z,9.60
2018-10-11T13:59:32.366Z,9.30
2018-10-11T14:02:00.709Z,9.80
2018-10-11T14:04:29.036Z,16.60
2018-10-11T14:06:57.294Z,16.20
2018-10-11T14:09:25.696Z,9.17
2018-10-11T14:11:53.990Z,9.70
2018-10-11T14:14:22.664Z,9.87
2018-10-11T14:16:50.939Z,8.40
2018-10-11T14:19:19.309Z,9.77
2018-10-11T14:21:47.752Z,8.30
2018-10-11T14:24:16.214Z,8.43
2018-10-11T14:26:44.452Z,7.77
2018-10-11T14:29:12.767Z,8.03
2018-10-11T14:31:41.167Z,8.47
2018-10-11T14:34:09.873Z,8.50
2018-10-11T14:36:38.199Z,8.50
2018-10-11T14:39:07.596Z,8.20
2018-10-11T14:41:36.080Z,10.70
2018-10-11T14:44:04.905Z,8.80
2018-10-11T14:46:33.180Z,10.93
2018-10-11T14:49:01.483Z,11.80
2018-10-11T14:51:29.989Z,11.73
2018-10-11T14:53:59.565Z,8.73
2018-10-11T14:56:26.688Z,8.00
2018-10-11T14:58:54.962Z,7.40
2018-10-11T15:01:23.263Z,7.83
2018-10-11T15:03:52.614Z,7.97
2018-10-11T15:06:20.950Z,7.53
2018-10-11T15:08:49.282Z,7.97
2018-10-11T15:11:17.718Z,8.00
2018-10-11T15:13:45.943Z,8.00
2018-10-11T15:16:14.408Z,8.33
2018-10-11T15:18:42.691Z,8.40
2018-10-11T15:21:10.973Z,7.80
2018-10-11T15:23:39.328Z,7.50
2018-10-11T15:26:07.644Z,8.33
2018-10-11T15:28:36.281Z,7.40
2018-10-11T15:31:04.544Z,7.77
2018-10-11T15:33:32.942Z,8.33
2018-10-11T15:36:01.424Z,9.00
2018-10-11T15:38:29.860Z,8.10
2018-10-11T15:40:58.116Z,7.93
2018-10-11T15:43:26.525Z,8.00
2018-10-11T15:45:54.890Z,8.07
2018-10-11T15:48:23.195Z,7.70
2018-10-11T15:50:51.481Z,7.83
2018-10-11T15:53:19.868Z,8.00
2018-10-11T15:55:48.196Z,8.43
2018-10-11T15:58:16.443Z,8.90
2018-10-11T16:00:44.739Z,7.53
2018-10-11T16:03:13.076Z,8.17
2018-10-11T16:05:41.632Z,7.40
2018-10-11T16:08:09.715Z,8.70
2018-10-11T16:10:38.028Z,9.17
2018-10-11T16:13:06.340Z,8.43
2018-10-11T16:15:34.777Z,7.57
2018-10-11T16:18:03.108Z,8.23
2018-10-11T16:20:31.438Z,8.03
2018-10-11T16:22:59.740Z,8.10
2018-10-11T16:25:28.207Z,8.00
2018-10-11T16:27:56.639Z,8.13
2018-10-11T16:30:25.049Z,8.50
2018-10-11T16:32:53.364Z,7.93
2018-10-11T16:35:21.719Z,9.00
2018-10-11T16:37:49.974Z,7.80
2018-10-11T16:40:18.248Z,7.63
2018-10-11T16:42:46.572Z,8.47
2018-10-11T16:45:14.964Z,9.27
2018-10-11T16:47:43.473Z,7.77
2018-10-11T16:50:11.858Z,8.37
2018-10-11T16:52:40.139Z,8.00
2018-10-11T16:55:08.440Z,8.03
2018-10-11T16:57:36.781Z,7.90
2018-10-11T17:00:05.476Z,7.90
2018-10-11T17:02:33.886Z,8.97
2018-10-11T17:05:02.257Z,25.53
2018-10-11T17:07:30.698Z,10.20
2018-10-11T17:09:59.097Z,9.27
2018-10-11T17:12:27.358Z,9.20
2018-10-11T17:14:55.834Z,10.20
2018-10-11T17:17:24.144Z,9.10
2018-10-11T17:19:52.846Z,9.80
2018-10-11T17:23:23.882Z,9.90
2018-10-11T17:25:52.264Z,9.33
2018-10-11T17:28:21.003Z,8.20
2018-10-11T17:30:49.285Z,9.40
2018-10-11T17:33:17.643Z,9.27
2018-10-11T17:35:46.070Z,9.60
2018-10-11T17:38:14.480Z,10.13
2018-10-11T17:40:42.811Z,10.57
2018-10-11T17:43:11.133Z,11.00
2018-10-11T17:45:39.545Z,11.47
2018-10-11T17:48:07.978Z,13.90
2018-10-11T17:50:36.440Z,13.53
2018-10-11T17:53:05.362Z,11.27
2018-10-11T17:55:34.289Z,12.73
2018-10-11T17:59:31.925Z,12.63
2018-10-11T18:02:00.281Z,12.20
2018-10-11T18:04:28.680Z,10.27
2018-10-11T18:06:56.988Z,12.73
2018-10-11T18:09:25.584Z,11.40
2018-10-11T18:11:53.864Z,11.00
2018-10-11T18:14:22.935Z,10.40
2018-10-11T18:16:51.267Z,11.47
2018-10-11T18:19:19.505Z,11.00
2018-10-11T18:21:47.930Z,11.07
2018-10-11T18:24:16.168Z,11.90
2018-10-11T18:26:44.648Z,10.80
2018-10-11T18:29:13.152Z,10.83
2018-10-11T18:31:41.487Z,12.50
2018-10-11T18:34:09.805Z,11.47
2018-10-11T18:36:38.072Z,13.23
2018-10-11T18:39:11.017Z,11.17
2018-10-11T18:41:39.629Z,10.20
2018-10-11T18:44:08.282Z,11.00
2018-10-11T18:46:36.523Z,14.90
2018-10-11T18:49:04.920Z,14.73
2018-10-11T18:51:33.226Z,15.60
2018-10-11T18:54:01.512Z,13.60
2018-10-11T18:56:29.904Z,13.50
2018-10-11T18:58:58.180Z,12.97
2018-10-11T19:01:26.534Z,13.60
2018-10-11T19:03:55.072Z,15.73
2018-10-11T19:06:23.490Z,13.97
2018-10-11T19:08:51.808Z,15.67
2018-10-11T19:11:20.267Z,13.50
2018-10-11T19:13:48.766Z,13.20
2018-10-11T19:16:17.008Z,13.70
2018-10-11T19:18:45.355Z,13.90
2018-10-11T19:21:13.864Z,12.20
2018-10-11T19:23:42.124Z,13.00
2018-10-11T19:26:10.428Z,12.90
2018-10-11T19:28:38.755Z,14.00
2018-10-11T19:31:07.059Z,12.83
2018-10-11T19:33:35.445Z,13.80
2018-10-11T19:36:03.882Z,12.83
2018-10-11T19:38:32.248Z,13.00
2018-10-11T19:41:00.693Z,11.83
2018-10-11T19:43:28.941Z,13.97
2018-10-11T19:45:57.240Z,12.97
2018-10-11T19:48:25.547Z,12.97
2018-10-11T19:50:53.832Z,13.10
2018-10-11T19:53:22.223Z,13.20
2018-10-11T19:55:50.692Z,13.63
2018-10-11T19:58:19.051Z,13.70
2018-10-11T20:00:47.483Z,11.97
2018-10-11T20:03:15.985Z,11.97
2018-10-11T20:05:44.297Z,13.17
2018-10-11T20:08:12.805Z,22.13
2018-10-11T20:10:41.410Z,17.53
2018-10-11T20:13:09.716Z,13.27
2018-10-11T20:15:38.470Z,12.73
2018-10-11T20:18:06.869Z,13.27
2018-10-11T20:20:35.416Z,12.40
2018-10-11T20:23:03.795Z,12.77
2018-10-11T20:25:32.164Z,13.50
2018-10-11T20:28:00.453Z,13.93
2018-10-11T20:30:28.782Z,13.40
2018-10-11T20:32:57.226Z,12.80
2018-10-11T20:35:25.508Z,13.70
2018-10-11T20:37:54.034Z,12.83
2018-10-11T20:40:22.596Z,13.53
2018-10-11T20:42:51.150Z,12.13
2018-10-11T20:45:19.568Z,13.70
2018-10-11T20:47:47.919Z,14.30
2018-10-11T20:50:16.216Z,15.30
2018-10-11T20:52:45.557Z,15.90
2018-10-11T20:55:14.037Z,14.90
2018-10-11T20:57:42.445Z,14.53
2018-10-11T21:00:11.118Z,14.40
2018-10-11T21:02:39.611Z,13.70
2018-10-11T21:05:08.129Z,13.20
2018-10-11T21:07:36.652Z,14.57
2018-10-11T21:10:05.371Z,14.60
2018-10-11T21:12:33.660Z,14.20
2018-10-11T21:15:01.973Z,14.47
2018-10-11T21:17:30.271Z,15.10
2018-10-11T21:20:03.513Z,14.10
2018-10-11T21:22:31.772Z,13.63
2018-10-11T21:25:00.061Z,13.63
2018-10-11T21:27:28.423Z,13.53
2018-10-11T21:29:57.036Z,14.70
2018-10-11T21:32:25.432Z,15.30
2018-10-11T21:34:53.805Z,14.73
2018-10-11T21:37:22.266Z,14.60
2018-10-11T21:39:50.588Z,15.63
2018-10-11T21:42:19.728Z,14.80
2018-10-11T21:44:48.146Z,15.33
2018-10-11T21:47:16.484Z,14.27
2018-10-11T21:51:09.255Z,14.97
2018-10-11T21:53:37.633Z,14.60
2018-10-11T21:56:05.886Z,14.13
2018-10-11T21:58:34.200Z,15.70
2018-10-11T22:01:07.678Z,15.50
2018-10-11T22:03:35.998Z,14.97
2018-10-11T22:06:04.369Z,14.53
2018-10-11T22:08:32.777Z,14.83
2018-10-11T22:11:01.010Z,15.27
2018-10-11T22:13:29.430Z,15.70
2018-10-11T22:15:57.696Z,16.30
2018-10-11T22:18:26.014Z,14.60
2018-10-11T22:20:54.410Z,14.70
2018-10-11T22:23:22.962Z,14.60
2018-10-11T22:25:51.246Z,15.57
2018-10-11T22:28:19.645Z,15.63
2018-10-11T22:30:47.995Z,15.53
2018-10-11T22:33:16.335Z,15.87
2018-10-11T22:35:44.735Z,15.37
2018-10-11T22:38:13.096Z,15.80
2018-10-11T22:40:41.692Z,15.80
2018-10-11T22:43:10.134Z,15.17
2018-10-11T22:45:38.459Z,15.53
2018-10-11T22:48:06.815Z,15.37
2018-10-11T22:50:35.120Z,14.57
2018-10-11T22:53:03.507Z,14.20
2018-10-11T22:55:32.664Z,14.60
2018-10-11T22:58:01.513Z,13.87
2018-10-11T23:00:30.031Z,15.17
2018-10-11T23:02:58.304Z,15.40
2018-10-11T23:05:26.914Z,14.13
2018-10-11T23:07:55.290Z,12.80
2018-10-11T23:10:23.696Z,13.73
2018-10-11T23:12:52.039Z,14.10
2018-10-11T23:15:20.369Z,14.40
2018-10-11T23:17:48.770Z,14.20
2018-10-11T23:20:17.172Z,14.50
2018-10-11T23:22:45.497Z,13.37
2018-10-11T23:25:13.776Z,12.40
2018-10-11T23:27:42.301Z,12.10
2018-10-11T23:30:11.834Z,13.10
2018-10-11T23:32:40.999Z,12.80
2018-10-11T23:35:09.982Z,14.40
2018-10-11T23:37:38.411Z,13.40
2018-10-11T23:40:06.838Z,13.07
2018-10-11T23:42:35.220Z,13.03
2018-10-11T23:45:03.524Z,13.17
2018-10-11T23:47:31.848Z,13.87
2018-10-11T23:50:00.285Z,14.60
2018-10-11T23:52:28.752Z,14.23
2018-10-11T23:54:57.097Z,14.07
2018-10-11T23:57:25.422Z,12.87
2018-10-11T23:59:53.739Z,13.83
